Slotergracht — PDBP — position and weather

sailwx.info

Track history (hours):
 
Tides and Currents Weather Stations Pressure Air Temp Water Temp Dewpoint Dewpoint Depression Visibility Wind Speed Wind Dir Waves Ship Positions

Slotergracht

Last reported at 2014-Sep-17 15:28 UTC. Time now 2014-Sep-23 02:19 UTC.
Position N 59°34' E 021°25'.

Length 168 m; beam 25 m.

Type: Cargo ship. MMSI: 246456000.

Date/timePositionNaut miles runAvg speedWind from/ knotsBaromVisibWave heightAir tempDewpointWater temp
2014-Sep-17 15:28N 59°34' E 021°25'6114.9
2014-Sep-17 11:23N 59°40' E 023°24'1213.9
2014-Sep-17 10:33N 59°42' E 023°46'1414.0
2014-Sep-17 09:33N 59°46' E 024°13'1414.1
2014-Sep-17 08:33N 59°49' E 024°40'6013.8
2014-Sep-17 04:13N 60°02' E 026°37'10812.3
2014-Sep-16 19:26N 59°53' E 030°12'1 1.1
2014-Sep-16 18:32N 59°53' E 030°14'0 0.0
2014-Sep-16 17:32N 59°53' E 030°14'0 0.0
2014-Sep-16 16:32N 59°53' E 030°14'0 0.0
2014-Sep-16 14:17N 59°53' E 030°14'0 0.0
2014-Sep-16 13:32N 59°53' E 030°14'0 0.0
2014-Sep-16 12:11N 59°53' E 030°14'0 0.0
2014-Sep-16 11:32N 59°53' E 030°14'0 0.0
2014-Sep-16 10:32N 59°53' E 030°14'0 0.0
2014-Sep-16 09:32N 59°53' E 030°14'0 0.0
2014-Sep-16 08:32N 59°53' E 030°14'0 0.0
2014-Sep-16 07:32N 59°53' E 030°14'0 0.0
2014-Sep-16 06:32N 59°53' E 030°14'0 0.0
2014-Sep-16 05:32N 59°53' E 030°14'0 0.0
2014-Sep-16 04:29N 59°53' E 030°14'0 0.0
2014-Sep-16 03:32N 59°53' E 030°14'0 0.0
2014-Sep-16 02:32N 59°53' E 030°14'4 4.4
2014-Sep-16 01:33N 59°54' E 030°06'84 3.5
2014-Sep-15 01:26N 60°02' E 027°18'1112.3
2014-Sep-15 00:34N 59°58' E 026°58'1312.7
2014-Sep-14 23:34N 59°59' E 026°33'1313.0
2014-Sep-14 22:34N 59°55' E 026°08'1313.0
2014-Sep-14 21:33N 59°51' E 025°43'1313.0
2014-Sep-14 20:34N 59°49' E 025°18'1513.0
2014-Sep-14 19:24N 59°45' E 024°49'1113.0
2014-Sep-14 18:34N 59°43' E 024°27'1312.7
2014-Sep-14 17:31N 59°39' E 024°02'1213.0
2014-Sep-14 16:33N 59°35' E 023°39'30013.3
2014-Sep-13 18:00N 56°06' E 016°54'1811.3 050 / 201026.2 2.2 2.017.516.4
2014-Sep-13 16:24N 55°57' E 016°26'6414.6
2014-Sep-13 12:00N 55°24' E 014°48'13 9.3 040 / 301022.8 2.2 2.016.715.417.5
2014-Sep-13 10:33N 55°16' E 014°29'1313.2
2014-Sep-13 09:33N 55°06' E 014°14'5613.0
2014-Sep-13 05:15N 54°45' E 012°45'912.8
2014-Sep-13 04:32N 54°40' E 012°31'1212.2
2014-Sep-13 03:33N 54°31' E 012°17'1111.1
2014-Sep-13 02:33N 54°24' E 012°03'1312.8
2014-Sep-13 01:33N 54°26' E 011°41'1313.3
2014-Sep-13 00:33N 54°32' E 011°21'1312.9
2014-Sep-12 23:33N 54°38' E 011°02'8111.5
2014-Sep-12 16:31N 55°59' E 010°60'2611.6
2014-Sep-12 14:15N 56°25' E 010°57'1 0.6
2014-Sep-12 13:05N 56°25' E 010°56'0 0.0
2014-Sep-12 06:08N 56°25' E 010°56'0 0.0
2014-Sep-12 05:26N 56°25' E 010°56'0 0.0
2014-Sep-12 04:29N 56°25' E 010°56'0 0.0
2014-Sep-11 23:26N 56°25' E 010°56'  
2014-Sep-08 11:05N 56°41' E 011°40'814.6
2014-Sep-08 10:33N 56°45' E 011°51'1414.2
2014-Sep-08 09:33N 56°59' E 011°43'1413.8
2014-Sep-08 08:33N 57°12' E 011°34'1413.8
2014-Sep-08 07:34N 57°25' E 011°26'1313.5
2014-Sep-08 06:34N 57°35' E 011°09'1414.0
2014-Sep-08 05:33N 57°45' E 010°50'1313.3
2014-Sep-08 04:33N 57°47' E 010°26'1514.5
2014-Sep-08 03:32N 57°45' E 009°58'6117.2
2014-Sep-08 00:00N 57°36' E 008°06'   1011.710.8 14.3 9.717.1
Track history (hours):
 
Tides and Currents Weather Stations Pressure Air Temp Water Temp Dewpoint Dewpoint Depression Visibility Wind Speed Wind Dir Waves Ship Positions

Slotergracht

Last reported at 2014-Sep-17 15:28 UTC. Time now 2014-Sep-23 02:19 UTC.
Position N 59°34' E 021°25'.

Length 168 m; beam 25 m.

Type: Cargo ship. MMSI: 246456000.

Date/timePositionNaut miles runAvg speedWind from/ knotsBaromVisibWave heightAir tempDewpointWater temp
2014-Sep-17 15:28N 59°34' E 021°25'6114.9
2014-Sep-17 11:23N 59°40' E 023°24'1213.9
2014-Sep-17 10:33N 59°42' E 023°46'1414.0
2014-Sep-17 09:33N 59°46' E 024°13'1414.1
2014-Sep-17 08:33N 59°49' E 024°40'6013.8
2014-Sep-17 04:13N 60°02' E 026°37'10812.3
2014-Sep-16 19:26N 59°53' E 030°12'1 1.1
2014-Sep-16 18:32N 59°53' E 030°14'0 0.0
2014-Sep-16 17:32N 59°53' E 030°14'0 0.0
2014-Sep-16 16:32N 59°53' E 030°14'0 0.0
2014-Sep-16 14:17N 59°53' E 030°14'0 0.0
2014-Sep-16 13:32N 59°53' E 030°14'0 0.0
2014-Sep-16 12:11N 59°53' E 030°14'0 0.0
2014-Sep-16 11:32N 59°53' E 030°14'0 0.0
2014-Sep-16 10:32N 59°53' E 030°14'0 0.0
2014-Sep-16 09:32N 59°53' E 030°14'0 0.0
2014-Sep-16 08:32N 59°53' E 030°14'0 0.0
2014-Sep-16 07:32N 59°53' E 030°14'0 0.0
2014-Sep-16 06:32N 59°53' E 030°14'0 0.0
2014-Sep-16 05:32N 59°53' E 030°14'0 0.0
2014-Sep-16 04:29N 59°53' E 030°14'0 0.0
2014-Sep-16 03:32N 59°53' E 030°14'0 0.0
2014-Sep-16 02:32N 59°53' E 030°14'4 4.4
2014-Sep-16 01:33N 59°54' E 030°06'84 3.5
2014-Sep-15 01:26N 60°02' E 027°18'1112.3
2014-Sep-15 00:34N 59°58' E 026°58'1312.7
2014-Sep-14 23:34N 59°59' E 026°33'1313.0
2014-Sep-14 22:34N 59°55' E 026°08'1313.0
2014-Sep-14 21:33N 59°51' E 025°43'1313.0
2014-Sep-14 20:34N 59°49' E 025°18'1513.0
2014-Sep-14 19:24N 59°45' E 024°49'1113.0
2014-Sep-14 18:34N 59°43' E 024°27'1312.7
2014-Sep-14 17:31N 59°39' E 024°02'1213.0
2014-Sep-14 16:33N 59°35' E 023°39'30013.3
2014-Sep-13 18:00N 56°06' E 016°54'1811.3 050 / 201026.2 2.2 2.017.516.4
2014-Sep-13 16:24N 55°57' E 016°26'6414.6
2014-Sep-13 12:00N 55°24' E 014°48'13 9.3 040 / 301022.8 2.2 2.016.715.417.5
2014-Sep-13 10:33N 55°16' E 014°29'1313.2
2014-Sep-13 09:33N 55°06' E 014°14'5613.0
2014-Sep-13 05:15N 54°45' E 012°45'912.8
2014-Sep-13 04:32N 54°40' E 012°31'1212.2
2014-Sep-13 03:33N 54°31' E 012°17'1111.1
2014-Sep-13 02:33N 54°24' E 012°03'1312.8
2014-Sep-13 01:33N 54°26' E 011°41'1313.3
2014-Sep-13 00:33N 54°32' E 011°21'1312.9
2014-Sep-12 23:33N 54°38' E 011°02'8111.5
2014-Sep-12 16:31N 55°59' E 010°60'2611.6
2014-Sep-12 14:15N 56°25' E 010°57'1 0.6
2014-Sep-12 13:05N 56°25' E 010°56'0 0.0
2014-Sep-12 06:08N 56°25' E 010°56'0 0.0
2014-Sep-12 05:26N 56°25' E 010°56'0 0.0
2014-Sep-12 04:29N 56°25' E 010°56'0 0.0
2014-Sep-11 23:26N 56°25' E 010°56'  
2014-Sep-08 11:05N 56°41' E 011°40'814.6
2014-Sep-08 10:33N 56°45' E 011°51'1414.2
2014-Sep-08 09:33N 56°59' E 011°43'1413.8
2014-Sep-08 08:33N 57°12' E 011°34'1413.8
2014-Sep-08 07:34N 57°25' E 011°26'1313.5
2014-Sep-08 06:34N 57°35' E 011°09'1414.0
2014-Sep-08 05:33N 57°45' E 010°50'1313.3
2014-Sep-08 04:33N 57°47' E 010°26'1514.5
2014-Sep-08 03:32N 57°45' E 009°58'6117.2
2014-Sep-08 00:00N 57°36' E 008°06'   1011.710.8 14.3 9.717.1

Dump ship's entire track history